Sadler, Texas
Current Conditions -  °F | °C
As of 11:55 AM on Saturday 20 Dec 2014 (Local Time) from KGYI Reporting Station
Haze Haze  
Wind Chill: 45°   Ceiling: 700
Heat Index: 45°   Visibility: 5mi
Dew Point: 43°   Wind: 0mph
Humidity: 94%   Direction: NA
Pressure: 30.25"   Gusts: NA
Location:  33.68°N, 96.85°W
Report Text: KGYI 201755Z AUTO 00000KT 5SM BR BKN007 BKN011 OVC023 07/06 A3025 RMK AO2 T00700061 10070 20061
Loading
Personal Weather Stations






























Interactive Weather Map New forecast layout! Learn more

10-Day Weather Forecast

Advertisements
Track Severe Weather on mobile